createdAt,value
2022-12-03T00:01:20.572Z,34.83
2022-12-03T00:04:23.624Z,30.52
2022-12-03T00:07:26.205Z,34.83
2022-12-03T00:10:29.213Z,44.08
2022-12-03T00:13:31.724Z,38.25
2022-12-03T00:16:34.589Z,37.38
2022-12-03T00:19:37.047Z,44.58
2022-12-03T00:22:39.883Z,33.70
2022-12-03T00:25:42.446Z,34.15
2022-12-03T00:28:46.074Z,40.42
2022-12-03T00:31:49.133Z,37.47
2022-12-03T00:34:52.484Z,34.47
2022-12-03T00:37:56.015Z,35.07
2022-12-03T00:40:58.953Z,35.55
2022-12-03T00:44:01.556Z,33.40
2022-12-03T00:47:04.675Z,35.67
2022-12-03T00:50:08.364Z,37.05
2022-12-03T00:53:11.190Z,38.27
2022-12-03T00:56:13.796Z,36.15
2022-12-03T00:59:16.697Z,44.55
2022-12-03T01:02:19.285Z,34.03
2022-12-03T01:05:22.284Z,37.40
2022-12-03T01:08:24.788Z,35.47
2022-12-03T01:11:40.768Z,36.67
2022-12-03T01:14:44.350Z,37.47
2022-12-03T01:17:47.199Z,32.80
2022-12-03T01:20:49.739Z,37.78
2022-12-03T01:23:52.702Z,40.70
2022-12-03T01:26:56.579Z,32.90
2022-12-03T01:29:59.548Z,38.60
2022-12-03T01:33:02.097Z,38.13
2022-12-03T01:36:05.105Z,39.78
2022-12-03T01:39:07.984Z,34.53
2022-12-03T01:42:25.537Z,41.05
2022-12-03T01:45:29.463Z,34.38
2022-12-03T01:48:35.081Z,35.17
2022-12-03T01:51:37.652Z,35.53
2022-12-03T01:54:43.209Z,34.60
2022-12-03T01:57:48.072Z,38.28
2022-12-03T02:00:51.181Z,39.80
2022-12-03T02:03:54.091Z,36.92
2022-12-03T02:06:56.940Z,35.42
2022-12-03T02:10:02.320Z,36.63
2022-12-03T02:13:08.127Z,36.63
2022-12-03T02:16:10.933Z,39.63
2022-12-03T02:19:27.624Z,39.72
2022-12-03T02:22:51.908Z,36.38
2022-12-03T02:25:54.796Z,32.53
2022-12-03T02:28:58.023Z,40.85
2022-12-03T02:32:01.027Z,42.42
2022-12-03T02:35:03.648Z,41.97
2022-12-03T02:38:15.322Z,37.65
2022-12-03T02:41:37.544Z,38.67
2022-12-03T02:44:40.539Z,38.17
2022-12-03T02:47:45.679Z,38.10
2022-12-03T02:50:51.039Z,36.60
2022-12-03T02:53:54.395Z,37.10
2022-12-03T02:56:57.253Z,41.63
2022-12-03T02:59:59.992Z,34.38
2022-12-03T03:03:04.593Z,37.55
2022-12-03T03:06:08.419Z,39.08
2022-12-03T03:09:11.357Z,41.95
2022-12-03T03:12:13.943Z,37.07
2022-12-03T03:15:16.898Z,40.95
2022-12-03T03:18:19.614Z,37.90
2022-12-03T03:21:22.524Z,43.05
2022-12-03T03:24:25.764Z,35.63
2022-12-03T03:27:28.952Z,36.13
2022-12-03T03:30:32.003Z,42.15
2022-12-03T03:33:35.487Z,37.72
2022-12-03T03:36:38.113Z,34.75
2022-12-03T03:39:40.900Z,37.50
2022-12-03T03:42:43.566Z,39.47
2022-12-03T03:45:47.011Z,37.30
2022-12-03T03:48:50.143Z,36.60
2022-12-03T03:51:53.096Z,39.30
2022-12-03T03:54:55.834Z,39.05
2022-12-03T03:57:59.071Z,38.73
2022-12-03T04:01:02.101Z,36.03
2022-12-03T04:04:07.061Z,37.15
2022-12-03T04:07:09.998Z,34.97
2022-12-03T04:10:32.462Z,41.15
2022-12-03T04:13:34.954Z,32.63
2022-12-03T04:16:37.823Z,34.20
2022-12-03T04:19:40.364Z,37.15
2022-12-03T04:22:43.319Z,33.78
2022-12-03T04:26:04.349Z,35.17
2022-12-03T04:29:07.155Z,35.73
2022-12-03T04:32:28.039Z,36.85
2022-12-03T04:35:42.999Z,35.92
2022-12-03T04:38:45.530Z,37.55
2022-12-03T04:41:48.316Z,39.85
2022-12-03T04:44:51.353Z,40.43
2022-12-03T04:47:54.266Z,34.90
2022-12-03T04:50:56.752Z,34.95
2022-12-03T04:53:59.534Z,39.33
2022-12-03T04:57:02.889Z,32.70
2022-12-03T05:00:06.458Z,38.73
2022-12-03T05:03:09.017Z,40.97
2022-12-03T05:06:11.921Z,41.15
2022-12-03T05:09:14.698Z,36.03
2022-12-03T05:12:17.611Z,41.20
2022-12-03T05:15:20.097Z,34.23
2022-12-03T05:18:23.063Z,37.90
2022-12-03T05:21:25.594Z,35.67
2022-12-03T05:24:28.494Z,44.53
2022-12-03T05:27:31.191Z,37.95
2022-12-03T05:30:34.163Z,38.23
2022-12-03T05:33:40.991Z,40.58
2022-12-03T05:36:46.970Z,38.35
2022-12-03T05:39:49.955Z,30.15
2022-12-03T05:42:57.127Z,32.58
2022-12-03T05:45:59.909Z,35.40
2022-12-03T05:49:05.932Z,38.80
2022-12-03T05:52:08.539Z,37.20
2022-12-03T05:55:12.003Z,38.92
2022-12-03T05:58:14.619Z,36.78
2022-12-03T06:01:17.501Z,31.80
2022-12-03T06:04:20.589Z,31.35
2022-12-03T06:07:23.162Z,37.10
2022-12-03T06:10:26.480Z,34.40
2022-12-03T06:13:29.039Z,32.22
2022-12-03T06:16:31.958Z,34.33
2022-12-03T06:19:34.793Z,37.58
2022-12-03T06:22:37.577Z,35.75
2022-12-03T06:25:40.075Z,34.60
2022-12-03T06:28:47.704Z,36.10
2022-12-03T06:31:50.279Z,37.67
2022-12-03T06:34:53.378Z,37.17
2022-12-03T06:37:56.120Z,35.20
2022-12-03T06:40:59.005Z,31.50
2022-12-03T06:44:01.584Z,31.70
2022-12-03T06:47:04.407Z,26.43
2022-12-03T06:50:08.174Z,35.05
2022-12-03T06:53:11.164Z,33.95
2022-12-03T06:56:13.669Z,30.30
2022-12-03T06:59:16.451Z,34.55
2022-12-03T07:02:20.198Z,31.20
2022-12-03T07:05:22.994Z,28.20
2022-12-03T07:08:25.669Z,34.28
2022-12-03T07:11:31.043Z,36.63
2022-12-03T07:14:33.611Z,37.78
2022-12-03T07:17:36.402Z,29.83
2022-12-03T07:20:38.899Z,30.67
2022-12-03T07:23:41.848Z,32.92
2022-12-03T07:26:44.377Z,32.20
2022-12-03T07:29:47.286Z,35.38
2022-12-03T07:32:50.311Z,31.97
2022-12-03T07:35:53.059Z,34.05
2022-12-03T07:38:55.571Z,33.72
2022-12-03T07:41:58.307Z,31.00
2022-12-03T07:45:01.418Z,30.00
2022-12-03T07:48:05.866Z,30.97
2022-12-03T07:51:11.579Z,30.25
2022-12-03T07:54:17.659Z,29.73
2022-12-03T07:57:20.323Z,28.27
2022-12-03T08:00:23.307Z,31.55
2022-12-03T08:03:26.125Z,34.57
2022-12-03T08:06:28.663Z,30.95
2022-12-03T08:09:31.943Z,33.63
2022-12-03T08:12:40.401Z,32.80
2022-12-03T08:15:44.068Z,31.95
2022-12-03T08:18:47.876Z,25.77
2022-12-03T08:21:50.645Z,27.92
2022-12-03T08:24:53.571Z,28.38
2022-12-03T08:28:20.697Z,30.12
2022-12-03T08:31:32.429Z,29.48
2022-12-03T08:34:40.508Z,30.50
2022-12-03T08:37:42.991Z,29.23
2022-12-03T08:40:47.214Z,31.02
2022-12-03T08:43:49.798Z,27.75
2022-12-03T08:47:12.990Z,30.52
2022-12-03T08:50:38.706Z,31.37
2022-12-03T08:53:48.541Z,27.65
2022-12-03T08:56:51.048Z,28.87
2022-12-03T08:59:59.157Z,33.42
2022-12-03T09:03:01.760Z,32.42
2022-12-03T09:06:05.043Z,28.27
2022-12-03T09:09:07.560Z,28.75
2022-12-03T09:12:11.057Z,30.60
2022-12-03T09:15:13.697Z,30.25
2022-12-03T09:18:16.543Z,26.10
2022-12-03T09:21:19.548Z,28.63
2022-12-03T09:24:22.472Z,27.80
2022-12-03T09:27:25.024Z,28.05
2022-12-03T09:30:28.011Z,31.62
2022-12-03T09:33:32.429Z,30.25
2022-12-03T09:36:35.323Z,32.60
2022-12-03T09:39:37.924Z,25.70
2022-12-03T09:42:41.335Z,30.33
2022-12-03T09:45:48.083Z,27.83
2022-12-03T09:48:51.153Z,32.25
2022-12-03T09:51:58.903Z,27.90
2022-12-03T09:55:07.850Z,28.08
2022-12-03T09:58:12.564Z,31.45
2022-12-03T10:01:16.282Z,32.00
2022-12-03T10:04:19.928Z,27.30
2022-12-03T10:07:23.374Z,26.13
2022-12-03T10:10:26.272Z,28.60
2022-12-03T10:13:30.421Z,23.20
2022-12-03T10:16:33.873Z,25.27
2022-12-03T10:19:37.594Z,32.45
2022-12-03T10:22:40.601Z,23.10
2022-12-03T10:25:56.595Z,28.38
2022-12-03T10:28:59.785Z,29.73
2022-12-03T10:32:07.593Z,26.60
2022-12-03T10:35:20.609Z,29.00
2022-12-03T10:38:23.705Z,27.80
2022-12-03T10:41:29.253Z,24.52
2022-12-03T10:44:31.822Z,22.45
2022-12-03T10:47:35.090Z,27.58
2022-12-03T10:50:38.442Z,23.08
2022-12-03T10:53:41.563Z,22.13
2022-12-03T10:56:44.896Z,24.67
2022-12-03T10:59:48.013Z,23.65
2022-12-03T11:02:56.715Z,23.27
2022-12-03T11:06:06.080Z,21.40
2022-12-03T11:09:18.403Z,22.10
2022-12-03T11:12:24.553Z,23.65
2022-12-03T11:15:42.477Z,20.55
2022-12-03T11:18:45.775Z,21.62
2022-12-03T11:22:03.499Z,23.65
2022-12-03T11:25:24.978Z,22.63
2022-12-03T11:28:27.661Z,24.42
2022-12-03T11:31:36.566Z,18.42
2022-12-03T11:34:40.773Z,21.45
2022-12-03T11:37:43.580Z,22.52
2022-12-03T11:41:16.167Z,20.43
2022-12-03T11:44:30.712Z,22.08
2022-12-03T11:47:38.668Z,24.98
2022-12-03T11:50:43.817Z,21.48
2022-12-03T11:53:46.659Z,20.75
2022-12-03T11:56:50.203Z,19.63
2022-12-03T12:00:05.463Z,18.55
2022-12-03T12:03:22.861Z,18.02
2022-12-03T12:06:26.084Z,22.58
2022-12-03T12:09:49.329Z,19.40
2022-12-03T12:12:55.079Z,21.47
2022-12-03T12:16:02.549Z,21.55
2022-12-03T12:19:27.398Z,17.55
2022-12-03T12:22:31.532Z,21.08
2022-12-03T12:25:35.405Z,18.27
2022-12-03T12:28:38.010Z,18.93
2022-12-03T12:31:41.016Z,19.17
2022-12-03T12:34:50.912Z,19.67
2022-12-03T12:38:00.176Z,17.77
2022-12-03T12:41:07.126Z,19.40
2022-12-03T12:44:10.656Z,23.00
2022-12-03T12:47:13.311Z,16.10
2022-12-03T12:50:18.104Z,17.45
2022-12-03T12:53:29.668Z,18.73
2022-12-03T12:56:33.461Z,17.77
2022-12-03T12:59:36.369Z,20.07
2022-12-03T13:02:44.479Z,19.27
2022-12-03T13:05:48.979Z,19.73
2022-12-03T13:08:52.429Z,18.90
2022-12-03T13:11:57.681Z,22.52
2022-12-03T13:15:00.965Z,18.83
2022-12-03T13:18:24.606Z,18.95
2022-12-03T13:21:41.542Z,19.62
2022-12-03T13:24:47.690Z,20.55
2022-12-03T13:27:50.664Z,23.77
2022-12-03T13:30:53.248Z,19.50
2022-12-03T13:33:57.065Z,20.67
2022-12-03T13:37:04.368Z,21.95
2022-12-03T13:40:36.184Z,18.45
2022-12-03T13:43:44.327Z,22.87
2022-12-03T13:46:47.668Z,20.53
2022-12-03T13:49:55.372Z,23.17
2022-12-03T13:53:03.742Z,20.08
2022-12-03T13:56:18.428Z,24.17
2022-12-03T13:59:25.954Z,21.52
2022-12-03T14:02:28.914Z,23.00
2022-12-03T14:05:31.700Z,23.17
2022-12-03T14:08:34.231Z,22.45
2022-12-03T14:11:56.190Z,23.95
2022-12-03T14:14:58.952Z,24.83
2022-12-03T14:18:02.449Z,19.47
2022-12-03T14:21:05.097Z,23.25
2022-12-03T14:24:08.386Z,19.90
2022-12-03T14:27:11.162Z,24.10
2022-12-03T14:30:14.773Z,21.20
2022-12-03T14:33:17.240Z,22.13
2022-12-03T14:36:20.013Z,23.52
2022-12-03T14:39:22.801Z,20.37
2022-12-03T14:42:25.941Z,22.42
2022-12-03T14:45:30.060Z,23.85
2022-12-03T14:48:32.953Z,22.87
2022-12-03T14:51:35.819Z,23.20
2022-12-03T14:54:45.094Z,21.73
2022-12-03T14:57:47.771Z,23.25
2022-12-03T15:00:50.806Z,24.90
2022-12-03T15:03:53.645Z,20.07
2022-12-03T15:06:56.530Z,21.23
2022-12-03T15:09:59.228Z,22.87
2022-12-03T15:13:02.407Z,23.00
2022-12-03T15:16:05.213Z,19.50
2022-12-03T15:19:08.237Z,20.90
2022-12-03T15:22:10.778Z,23.15
2022-12-03T15:25:13.654Z,23.10
2022-12-03T15:28:16.177Z,23.42
2022-12-03T15:31:19.266Z,23.15
2022-12-03T15:34:23.410Z,20.20
2022-12-03T15:37:28.212Z,24.80
2022-12-03T15:40:31.512Z,20.25
2022-12-03T15:43:34.922Z,24.17
2022-12-03T15:46:37.400Z,20.55
2022-12-03T15:49:40.473Z,17.93
2022-12-03T15:52:43.041Z,22.58
2022-12-03T15:55:46.058Z,20.05
2022-12-03T15:58:48.755Z,23.25
2022-12-03T16:01:51.820Z,23.40
2022-12-03T16:04:54.920Z,22.03
2022-12-03T16:07:57.567Z,24.40
2022-12-03T16:11:00.384Z,24.17
2022-12-03T16:14:03.106Z,26.50
2022-12-03T16:17:05.886Z,24.48
2022-12-03T16:20:08.967Z,25.73
2022-12-03T16:23:11.898Z,29.80
2022-12-03T16:26:14.415Z,25.25
2022-12-03T16:29:17.503Z,25.60
2022-12-03T16:32:20.095Z,29.65
2022-12-03T16:35:23.283Z,28.70
2022-12-03T16:38:25.779Z,28.02
2022-12-03T16:41:28.659Z,29.08
2022-12-03T16:44:32.979Z,31.20
2022-12-03T16:47:36.060Z,26.90
2022-12-03T16:50:38.768Z,28.90
2022-12-03T16:53:42.105Z,31.00
2022-12-03T16:56:44.868Z,28.85
2022-12-03T16:59:47.852Z,33.28
2022-12-03T17:02:50.521Z,29.63
2022-12-03T17:05:53.299Z,30.87
2022-12-03T17:08:56.090Z,32.15
2022-12-03T17:11:59.040Z,34.20
2022-12-03T17:15:01.731Z,31.30
2022-12-03T17:18:05.779Z,35.55
2022-12-03T17:21:08.393Z,31.13
2022-12-03T17:24:11.184Z,30.92
2022-12-03T17:27:15.684Z,32.33
2022-12-03T17:30:18.766Z,33.80
2022-12-03T17:33:21.301Z,33.30
2022-12-03T17:36:24.915Z,32.27
2022-12-03T17:39:27.573Z,36.13
2022-12-03T17:42:30.434Z,34.53
2022-12-03T17:45:32.919Z,35.58
2022-12-03T17:48:35.861Z,30.52
2022-12-03T17:51:39.377Z,34.60
2022-12-03T17:55:09.172Z,35.33
2022-12-03T17:58:05.197Z,32.95
2022-12-03T18:01:11.560Z,29.80
2022-12-03T18:04:14.593Z,34.72
2022-12-03T18:07:17.144Z,32.17
2022-12-03T18:10:20.154Z,33.83
2022-12-03T18:13:22.887Z,33.53
2022-12-03T18:16:26.001Z,29.30
2022-12-03T18:19:28.725Z,37.35
2022-12-03T18:22:31.608Z,30.80
2022-12-03T18:25:34.115Z,35.75
2022-12-03T18:28:37.216Z,32.35
2022-12-03T18:31:39.984Z,29.65
2022-12-03T18:34:42.974Z,33.30
2022-12-03T18:37:45.784Z,34.73
2022-12-03T18:40:50.476Z,31.33
2022-12-03T18:43:53.174Z,32.05
2022-12-03T18:46:57.686Z,26.95
2022-12-03T18:50:00.365Z,30.70
2022-12-03T18:53:05.183Z,35.07
2022-12-03T18:56:08.852Z,33.03
2022-12-03T18:59:12.295Z,32.83
2022-12-03T19:02:32.462Z,35.72
2022-12-03T19:05:40.415Z,29.58
2022-12-03T19:08:43.538Z,31.70
2022-12-03T19:11:46.871Z,30.45
2022-12-03T19:14:51.121Z,35.60
2022-12-03T19:17:54.505Z,30.08
2022-12-03T19:20:57.824Z,30.92
2022-12-03T19:24:23.892Z,24.93
2022-12-03T19:27:24.941Z,29.52
2022-12-03T19:30:28.277Z,33.88
2022-12-03T19:33:31.500Z,29.73
2022-12-03T19:36:34.644Z,27.80
2022-12-03T19:39:38.550Z,33.27
2022-12-03T19:42:45.032Z,30.23
2022-12-03T19:45:47.903Z,30.00
2022-12-03T19:48:51.154Z,28.10
2022-12-03T19:51:54.851Z,35.88
2022-12-03T19:54:58.147Z,29.17
2022-12-03T19:58:00.890Z,30.90
2022-12-03T20:01:07.707Z,27.08
2022-12-03T20:04:11.446Z,27.60
2022-12-03T20:07:13.974Z,30.48
2022-12-03T20:10:17.327Z,29.20
2022-12-03T20:13:20.088Z,34.08
2022-12-03T20:16:24.365Z,29.17
2022-12-03T20:19:28.175Z,30.23
2022-12-03T20:22:31.322Z,28.60
2022-12-03T20:25:36.680Z,30.70
2022-12-03T20:28:40.187Z,28.30
2022-12-03T20:31:43.024Z,26.60
2022-12-03T20:34:46.175Z,31.15
2022-12-03T20:37:48.664Z,28.62
2022-12-03T20:40:51.978Z,29.33
2022-12-03T20:43:54.864Z,29.35
2022-12-03T20:46:57.706Z,31.65
2022-12-03T20:50:01.037Z,32.88
2022-12-03T20:53:23.722Z,29.52
2022-12-03T20:56:36.082Z,31.43
2022-12-03T20:59:39.656Z,33.83
2022-12-03T21:02:43.006Z,33.63
2022-12-03T21:05:47.156Z,34.75
2022-12-03T21:08:52.728Z,34.65
2022-12-03T21:11:55.566Z,31.97
2022-12-03T21:14:58.079Z,33.03
2022-12-03T21:18:02.523Z,31.42
2022-12-03T21:21:05.642Z,37.40
2022-12-03T21:24:08.612Z,33.70
2022-12-03T21:27:11.137Z,28.27
2022-12-03T21:30:14.281Z,32.90
2022-12-03T21:33:16.751Z,33.50
2022-12-03T21:36:19.907Z,32.50
2022-12-03T21:39:23.040Z,31.40
2022-12-03T21:42:35.722Z,29.47
2022-12-03T21:45:40.611Z,30.95
2022-12-03T21:48:44.815Z,27.13
2022-12-03T21:51:47.456Z,27.90
2022-12-03T21:54:52.580Z,31.08
2022-12-03T21:57:55.027Z,36.13
2022-12-03T22:00:58.007Z,29.65
2022-12-03T22:04:01.057Z,31.45
2022-12-03T22:07:04.430Z,31.83
2022-12-03T22:10:09.405Z,28.27
2022-12-03T22:13:11.956Z,35.93
2022-12-03T22:16:17.973Z,37.08
2022-12-03T22:19:24.358Z,31.73
2022-12-03T22:22:27.649Z,31.58
2022-12-03T22:25:30.610Z,31.20
2022-12-03T22:28:34.387Z,34.13
2022-12-03T22:31:37.038Z,30.67
2022-12-03T22:34:41.630Z,33.88
2022-12-03T22:37:44.591Z,33.50
2022-12-03T22:40:47.938Z,37.05
2022-12-03T22:43:50.417Z,32.17
2022-12-03T22:46:53.364Z,40.42
2022-12-03T22:49:58.603Z,35.10
2022-12-03T22:53:01.740Z,37.22
2022-12-03T22:56:04.385Z,34.05
2022-12-03T22:59:07.466Z,35.00
2022-12-03T23:02:10.306Z,35.38
2022-12-03T23:05:13.124Z,39.17
2022-12-03T23:08:18.997Z,33.92
2022-12-03T23:11:22.773Z,35.28
2022-12-03T23:14:25.324Z,35.80
2022-12-03T23:17:28.864Z,37.58
2022-12-03T23:20:31.648Z,33.88
2022-12-03T23:23:34.513Z,34.78
2022-12-03T23:26:38.580Z,36.38
2022-12-03T23:29:41.490Z,32.03
2022-12-03T23:32:44.531Z,36.60
2022-12-03T23:35:47.546Z,37.05
2022-12-03T23:38:50.411Z,38.00
2022-12-03T23:41:53.295Z,39.92
2022-12-03T23:44:55.832Z,37.30
2022-12-03T23:47:58.659Z,36.42
2022-12-03T23:51:08.549Z,38.13
2022-12-03T23:54:12.218Z,35.58
2022-12-03T23:57:15.984Z,34.55
